Umiujaq Airport
CYMU : now visible

Airfield :











YOU CAN JOIN US ON...

 
LOGIN :

Register | Disclaimer

   EN    FR    IT 

 









Legend :    VFR   Marginal VFR   IFR   Intensive IFR   Very Intensive IFR
Visi :
Ceiling :
>= 8 km
>= 3000ft
5 to 8 km
1000 to 3000 ft
1500m to 5 km
500 to 1000 ft
800 to 1500m
200 to 500 ft
< 800m
< 200 ft
Symbols :   Thunderstorms  Fog  Heavy snow  Heavy precipitations  Wind > 20 kt






- Airport Elevation : 250 ft
- IATA code : YUD


CYMU - Umiujaq

CURRENT METAR :
  • 041500Z 21008KT 15SM FEW060 FEW075 FEW240 FEW320 10/06 A3007 RMK SC1ACC1CI1CI1 SC TR ACC TR CI TR SLP189

EXPIRED METARs :
  • 041400Z 20006KT 15SM FEW060 FEW240 10/06 A3007 RMK SC1CI1 SC TR SLP187
  • 041300Z 21008KT 15SM FEW005 FEW060 FEW160 FEW240 09/06 A3007 RMK ST1SC1AC1CI1 ST TR AC TR SLP189

TAF N/A
CZUL FIR / North America



MET'MAP, your aeronautical weather chart ! - Copyright ORBIFLY December 2007 - Disclaimer

ORBIFLY MET'MAP TEAM :

Programming & Development : Alexandra Zaïnal
Concept & original design : Baudouin d'Aumeries
Assistance for programming : Marc-Olivier Méhu
Technical & hardware support : Manuel Goepfert

Contact : metmap@orbifly.com




SOURCES & CREDITS :

   NOAA       Earth
Advisory